createdAt,value
2022-10-12T00:05:10.460Z,5.80
2022-10-12T00:10:42.321Z,5.85
2022-10-12T00:16:13.972Z,5.95
2022-10-12T00:21:45.854Z,6.00
2022-10-12T00:27:17.608Z,6.05
2022-10-12T00:32:49.302Z,6.20
2022-10-12T00:38:21.648Z,6.30
2022-10-12T00:43:57.967Z,6.30
2022-10-12T00:49:25.115Z,6.60
2022-10-12T00:54:57.345Z,6.65
2022-10-12T01:00:29.177Z,6.75
2022-10-12T01:06:02.243Z,6.75
2022-10-12T01:11:33.767Z,6.95
2022-10-12T01:17:05.539Z,7.00
2022-10-12T01:22:37.424Z,7.15
2022-10-12T01:28:09.296Z,7.25
2022-10-12T01:33:40.995Z,7.35
2022-10-12T01:39:12.831Z,7.50
2022-10-12T01:44:44.912Z,7.55
2022-10-12T01:50:16.755Z,7.65
2022-10-12T01:55:48.642Z,7.75
2022-10-12T02:01:20.598Z,7.75
2022-10-12T02:06:52.805Z,7.80
2022-10-12T02:12:25.009Z,8.05
2022-10-12T02:17:57.267Z,8.05
2022-10-12T02:28:59.004Z,8.25
2022-10-12T02:34:31.052Z,8.30
2022-10-12T02:40:02.868Z,8.45
2022-10-12T02:45:34.799Z,8.60
2022-10-12T02:51:06.742Z,8.80
2022-10-12T02:56:38.673Z,8.90
2022-10-12T03:02:10.592Z,9.15
2022-10-12T03:07:42.634Z,9.20
2022-10-12T03:13:14.525Z,9.40
2022-10-12T03:18:46.761Z,9.60
2022-10-12T03:24:18.714Z,9.60
2022-10-12T03:29:50.765Z,9.65
2022-10-12T03:35:22.523Z,9.90
2022-10-12T03:40:54.405Z,9.95
2022-10-12T03:46:26.863Z,10.10
2022-10-12T03:57:31.485Z,10.35
2022-10-12T04:03:03.434Z,10.40
2022-10-12T04:08:35.540Z,10.45
2022-10-12T04:14:07.408Z,10.50
2022-10-12T04:19:39.122Z,10.50
2022-10-12T04:25:10.936Z,10.80
2022-10-12T04:30:43.036Z,11.00
2022-10-12T04:36:15.057Z,11.05
2022-10-12T04:41:46.885Z,11.15
2022-10-12T04:47:18.602Z,11.25
2022-10-12T04:52:50.685Z,11.30
2022-10-12T04:58:22.996Z,11.40
2022-10-12T05:03:55.286Z,11.50
2022-10-12T05:09:27.113Z,11.65
2022-10-12T05:14:59.328Z,11.75
2022-10-12T05:20:31.376Z,11.80
2022-10-12T05:26:03.141Z,11.90
2022-10-12T05:31:34.773Z,12.05
2022-10-12T05:37:06.685Z,12.25
2022-10-12T05:42:38.570Z,12.35
2022-10-12T05:48:10.095Z,12.50
2022-10-12T05:59:11.097Z,12.60
2022-10-12T06:04:43.012Z,12.75
2022-10-12T06:10:14.755Z,12.85
2022-10-12T06:15:46.581Z,12.95
2022-10-12T06:21:33.165Z,13.00
2022-10-12T06:26:50.584Z,13.10
2022-10-12T06:32:22.804Z,13.25
2022-10-12T06:37:54.605Z,13.35
2022-10-12T06:43:26.551Z,13.40
2022-10-12T06:48:58.524Z,13.45
2022-10-12T06:54:30.772Z,13.55
2022-10-12T07:00:03.133Z,13.55
2022-10-12T07:05:35.278Z,13.75
2022-10-12T07:07:47.731Z,2.95
2022-10-12T07:13:19.761Z,1.97
2022-10-12T07:18:51.677Z,1.97
2022-10-12T07:24:23.690Z,1.71
2022-10-12T07:29:55.621Z,1.76
2022-10-12T07:35:27.661Z,1.47
2022-10-12T07:40:59.968Z,1.68
2022-10-12T07:46:31.756Z,1.59
2022-10-12T07:52:03.575Z,1.96
2022-10-12T07:57:35.341Z,1.96
2022-10-12T08:03:07.247Z,1.87
2022-10-12T08:08:39.262Z,1.96
2022-10-12T08:14:10.980Z,2.04
2022-10-12T08:19:43.253Z,1.89
2022-10-12T08:25:15.713Z,1.89
2022-10-12T08:30:47.477Z,1.84
2022-10-12T08:36:19.192Z,1.96
2022-10-12T08:41:51.120Z,2.01
2022-10-12T08:47:23.066Z,2.11
2022-10-12T08:52:54.708Z,2.15
2022-10-12T09:00:46.457Z,2.00
2022-10-12T09:06:18.093Z,1.49
2022-10-12T09:11:49.841Z,1.31
2022-10-12T09:17:21.277Z,0.98
2022-10-12T09:22:53.719Z,0.79
2022-10-12T09:28:25.764Z,1.31
2022-10-12T09:33:57.755Z,1.26
2022-10-12T09:39:29.653Z,1.10
2022-10-12T09:45:01.393Z,1.09
2022-10-12T09:50:33.522Z,1.08
2022-10-12T09:56:05.741Z,1.07
2022-10-12T10:01:38.058Z,1.06
2022-10-12T10:07:10.353Z,1.13
2022-10-12T10:12:42.302Z,1.05
2022-10-12T10:18:14.334Z,1.11
2022-10-12T10:23:46.513Z,1.10
2022-10-12T10:40:20.046Z,1.39
2022-10-12T10:45:51.880Z,1.45
2022-10-12T10:51:23.550Z,1.65
2022-10-12T10:56:55.505Z,1.85
2022-10-12T11:02:27.200Z,1.85
2022-10-12T11:07:59.211Z,1.95
2022-10-12T11:13:30.936Z,2.00
2022-10-12T11:19:02.859Z,2.05
2022-10-12T11:24:34.961Z,2.10
2022-10-12T11:30:10.088Z,2.15
2022-10-12T11:35:38.541Z,2.15
2022-10-12T11:46:42.126Z,2.30
2022-10-12T11:52:14.019Z,2.45
2022-10-12T12:03:15.076Z,2.60
2022-10-12T12:08:46.559Z,2.65
2022-10-12T12:14:18.269Z,2.70
2022-10-12T12:19:50.065Z,2.75
2022-10-12T12:25:21.826Z,2.90
2022-10-12T12:36:32.811Z,3.20
2022-10-12T12:47:46.600Z,3.45
2022-10-12T12:53:10.195Z,3.55
2022-10-12T13:04:16.989Z,3.75
2022-10-12T13:09:48.869Z,3.80
2022-10-12T13:15:20.758Z,3.80
2022-10-12T13:20:52.951Z,4.05
2022-10-12T13:28:45.421Z,3.93
2022-10-12T13:34:17.095Z,2.46
2022-10-12T13:39:48.891Z,1.64
2022-10-12T13:45:20.875Z,1.47
2022-10-12T13:50:52.410Z,1.57
2022-10-12T13:56:24.411Z,1.63
2022-10-12T14:01:56.277Z,1.68
2022-10-12T14:07:28.093Z,1.84
2022-10-12T14:18:29.908Z,1.67
2022-10-12T14:24:01.583Z,1.51
2022-10-12T14:29:34.261Z,1.55
2022-10-12T14:35:06.413Z,1.58
2022-10-12T14:40:37.841Z,1.61
2022-10-12T14:46:09.552Z,1.57
2022-10-12T14:51:40.891Z,1.59
2022-10-12T14:57:13.392Z,1.61
2022-10-12T15:02:44.712Z,1.69
2022-10-12T15:08:16.470Z,1.65
2022-10-12T15:13:48.267Z,1.80
2022-10-12T15:19:19.883Z,1.90
2022-10-12T15:24:51.581Z,2.10
2022-10-12T15:30:23.652Z,2.10
2022-10-12T15:35:55.255Z,2.10
2022-10-12T15:41:26.877Z,2.25
2022-10-12T15:46:58.684Z,2.25
2022-10-12T15:52:30.495Z,2.30
2022-10-12T15:58:02.490Z,2.35
2022-10-12T16:03:33.934Z,2.55
2022-10-12T16:09:05.924Z,2.70
2022-10-12T16:14:37.674Z,2.75
2022-10-12T16:20:09.473Z,2.85
2022-10-12T16:25:41.077Z,2.90
2022-10-12T16:31:13.001Z,2.95
2022-10-12T16:36:44.638Z,3.00
2022-10-12T16:42:17.001Z,3.10
2022-10-12T16:47:48.498Z,3.20
2022-10-12T16:53:20.226Z,3.35
2022-10-12T17:09:56.244Z,3.50
2022-10-12T17:15:28.038Z,3.60
2022-10-12T17:20:59.612Z,3.70
2022-10-12T17:37:35.146Z,3.90
2022-10-12T17:43:06.855Z,4.10
2022-10-12T17:48:38.742Z,4.20
2022-10-12T17:54:10.644Z,4.35
2022-10-12T17:59:42.353Z,4.40
2022-10-12T18:05:14.321Z,4.45
2022-10-12T18:10:45.729Z,4.50
2022-10-12T18:16:17.604Z,4.55
2022-10-12T18:21:49.569Z,4.60
2022-10-12T18:27:22.915Z,4.65
2022-10-12T18:32:54.693Z,4.70
2022-10-12T18:38:26.662Z,4.70
2022-10-12T18:43:58.856Z,4.80
2022-10-12T18:49:30.596Z,4.90
2022-10-12T18:57:26.579Z,4.92
2022-10-12T19:02:56.081Z,4.43
2022-10-12T19:08:28.288Z,3.61
2022-10-12T19:13:59.960Z,3.43
2022-10-12T19:19:31.883Z,3.14
2022-10-12T19:25:03.756Z,2.61
2022-10-12T19:30:35.903Z,2.52
2022-10-12T19:36:08.367Z,2.20
2022-10-12T19:41:40.447Z,2.07
2022-10-12T19:52:42.217Z,1.96
2022-10-12T19:58:14.043Z,2.04
2022-10-12T20:03:47.916Z,2.11
2022-10-12T20:09:17.705Z,2.03
2022-10-12T20:14:49.533Z,1.96
2022-10-12T20:20:20.988Z,1.90
2022-10-12T20:31:22.223Z,2.01
2022-10-12T20:36:54.274Z,2.06
2022-10-12T20:42:26.226Z,2.15
2022-10-12T20:47:57.793Z,2.35
2022-10-12T20:53:30.067Z,2.40
2022-10-12T20:59:01.690Z,2.50
2022-10-12T21:04:38.132Z,2.50
2022-10-12T21:10:05.046Z,2.65
2022-10-12T21:15:37.125Z,2.65
2022-10-12T21:21:08.885Z,2.80
2022-10-12T21:32:10.306Z,2.95
2022-10-12T21:37:42.450Z,3.00
2022-10-12T21:43:20.277Z,3.00
2022-10-12T21:48:52.247Z,3.05
2022-10-12T21:54:25.779Z,3.20
2022-10-12T21:59:57.552Z,3.25
2022-10-12T22:05:29.259Z,3.40
2022-10-12T22:11:01.113Z,3.50
2022-10-12T22:16:33.200Z,3.70
2022-10-12T22:22:05.212Z,3.80
2022-10-12T22:27:37.013Z,3.85
2022-10-12T22:33:08.731Z,3.90
2022-10-12T22:38:40.564Z,4.00
2022-10-12T22:44:12.831Z,4.15
2022-10-12T22:49:44.499Z,4.20
2022-10-12T22:55:16.181Z,4.25
2022-10-12T23:00:54.190Z,4.30
2022-10-12T23:06:26.321Z,4.45
2022-10-12T23:11:58.047Z,4.55
2022-10-12T23:17:29.988Z,4.70
2022-10-12T23:23:01.937Z,4.70
2022-10-12T23:28:33.718Z,4.70
2022-10-12T23:34:05.672Z,4.75
2022-10-12T23:39:37.770Z,4.90
2022-10-12T23:45:09.917Z,4.95
2022-10-12T23:50:41.921Z,5.00
2022-10-12T23:56:20.014Z,5.05
